createdAt,value
2019-03-27T00:00:22.747Z,75.39
2019-03-27T00:01:22.742Z,75.77
2019-03-27T00:02:22.720Z,75.81
2019-03-27T00:03:22.746Z,76.01
2019-03-27T00:04:22.709Z,75.81
2019-03-27T00:05:22.707Z,76.01
2019-03-27T00:06:22.675Z,75.70
2019-03-27T00:07:22.689Z,75.63
2019-03-27T00:08:22.683Z,75.84
2019-03-27T00:09:22.672Z,76.15
2019-03-27T00:10:22.662Z,76.46
2019-03-27T00:11:22.654Z,76.87
2019-03-27T00:12:22.617Z,76.77
2019-03-27T00:13:22.644Z,76.77
2019-03-27T00:14:22.605Z,76.70
2019-03-27T00:15:22.587Z,76.56
2019-03-27T00:16:22.590Z,77.22
2019-03-27T00:17:22.562Z,78.19
2019-03-27T00:18:22.608Z,77.94
2019-03-27T00:19:22.552Z,78.67
2019-03-27T00:20:22.540Z,79.22
2019-03-27T00:21:22.527Z,79.43
2019-03-27T00:22:22.523Z,79.43
2019-03-27T00:23:22.539Z,79.43
2019-03-27T00:24:22.494Z,79.02
2019-03-27T00:25:22.484Z,80.19
2019-03-27T00:26:23.198Z,80.19
2019-03-27T00:27:22.467Z,80.19
2019-03-27T00:28:22.474Z,81.12
2019-03-27T00:29:22.449Z,81.12
2019-03-27T00:30:22.425Z,80.19
2019-03-27T00:31:22.420Z,80.91
2019-03-27T00:32:22.398Z,80.40
2019-03-27T00:33:22.425Z,80.64
2019-03-27T00:34:22.407Z,80.85
2019-03-27T00:35:22.377Z,80.85
2019-03-27T00:36:22.361Z,80.95
2019-03-27T00:37:22.359Z,80.81
2019-03-27T00:38:22.429Z,80.64
2019-03-27T00:39:22.340Z,80.43
2019-03-27T00:40:22.353Z,80.54
2019-03-27T00:41:22.306Z,80.74
2019-03-27T00:42:22.299Z,80.74
2019-03-27T00:43:22.317Z,80.02
2019-03-27T00:44:22.276Z,80.12
2019-03-27T00:45:26.945Z,80.64
2019-03-27T00:46:22.259Z,80.57
2019-03-27T00:47:22.251Z,80.57
2019-03-27T00:48:22.237Z,80.57
2019-03-27T00:49:22.741Z,80.47
2019-03-27T00:50:22.227Z,80.57
2019-03-27T00:51:22.207Z,81.02
2019-03-27T00:52:22.199Z,81.44
2019-03-27T00:53:22.174Z,81.75
2019-03-27T00:54:22.186Z,81.68
2019-03-27T00:55:22.151Z,81.48
2019-03-27T00:56:22.148Z,82.31
2019-03-27T00:57:22.171Z,82.76
2019-03-27T00:58:22.127Z,83.17
2019-03-27T00:59:22.132Z,82.97
2019-03-27T01:00:22.102Z,82.86
2019-03-27T01:01:22.091Z,82.97
2019-03-27T01:02:22.086Z,83.11
2019-03-27T01:03:22.074Z,82.70
2019-03-27T01:04:22.074Z,82.70
2019-03-27T01:05:22.081Z,83.53
2019-03-27T01:06:22.046Z,83.63
2019-03-27T01:07:22.029Z,83.53
2019-03-27T01:08:22.018Z,83.42
2019-03-27T01:09:22.030Z,83.36
2019-03-27T01:10:21.992Z,84.08
2019-03-27T01:11:21.978Z,84.08
2019-03-27T01:12:21.973Z,84.81
2019-03-27T01:13:21.961Z,84.39
2019-03-27T01:14:21.957Z,84.29
2019-03-27T01:15:21.947Z,84.29
2019-03-27T01:16:21.930Z,84.08
2019-03-27T01:17:21.928Z,85.02
2019-03-27T01:18:21.898Z,84.91
2019-03-27T01:19:21.926Z,85.02
2019-03-27T01:20:21.881Z,84.81
2019-03-27T01:21:21.879Z,84.95
2019-03-27T01:22:21.859Z,84.74
2019-03-27T01:23:21.845Z,84.74
2019-03-27T01:24:21.862Z,85.22
2019-03-27T01:25:21.843Z,84.91
2019-03-27T01:26:21.819Z,85.12
2019-03-27T01:27:21.798Z,84.81
2019-03-27T01:28:21.800Z,85.12
2019-03-27T01:29:21.812Z,84.81
2019-03-27T01:30:21.763Z,84.81
2019-03-27T01:31:21.757Z,84.81
2019-03-27T01:32:21.748Z,84.91
2019-03-27T01:33:21.739Z,85.12
2019-03-27T01:34:21.759Z,84.91
2019-03-27T01:35:21.716Z,84.70
2019-03-27T01:36:21.704Z,85.02
2019-03-27T01:37:21.686Z,84.39
2019-03-27T01:38:21.694Z,85.12
2019-03-27T01:39:21.703Z,84.98
2019-03-27T01:40:21.669Z,84.25
2019-03-27T01:41:21.650Z,83.77
2019-03-27T01:42:21.647Z,85.12
2019-03-27T01:43:21.637Z,85.02
2019-03-27T01:44:21.640Z,84.91
2019-03-27T01:45:21.623Z,84.91
2019-03-27T01:46:21.612Z,84.81
2019-03-27T01:47:21.583Z,85.02
2019-03-27T01:48:21.580Z,84.91
2019-03-27T01:49:21.597Z,84.98
2019-03-27T01:50:21.554Z,85.08
2019-03-27T01:51:21.547Z,83.73
2019-03-27T01:52:21.594Z,84.15
2019-03-27T01:53:21.523Z,83.73
2019-03-27T01:54:21.579Z,83.63
2019-03-27T01:55:21.497Z,83.94
2019-03-27T01:56:21.492Z,83.94
2019-03-27T01:57:21.476Z,84.08
2019-03-27T01:58:21.459Z,84.05
2019-03-27T01:59:21.480Z,84.77
2019-03-27T02:00:21.447Z,84.81
2019-03-27T02:01:21.432Z,84.15
2019-03-27T02:02:21.420Z,84.88
2019-03-27T02:03:21.422Z,84.88
2019-03-27T02:04:21.436Z,84.15
2019-03-27T02:05:21.391Z,83.84
2019-03-27T02:06:21.378Z,84.77
2019-03-27T02:07:21.398Z,84.98
2019-03-27T02:08:21.371Z,84.73
2019-03-27T02:09:21.390Z,84.94
2019-03-27T02:10:21.338Z,84.73
2019-03-27T02:11:21.314Z,84.00
2019-03-27T02:12:21.304Z,83.48
2019-03-27T02:13:21.319Z,83.32
2019-03-27T02:14:21.316Z,83.80
2019-03-27T02:15:21.279Z,83.48
2019-03-27T02:16:21.275Z,83.28
2019-03-27T02:17:21.253Z,84.00
2019-03-27T02:18:21.239Z,83.38
2019-03-27T02:19:21.273Z,84.00
2019-03-27T02:20:21.235Z,83.69
2019-03-27T02:21:21.205Z,83.69
2019-03-27T02:22:21.212Z,83.90
2019-03-27T02:23:21.197Z,83.90
2019-03-27T02:24:21.208Z,84.73
2019-03-27T02:25:21.170Z,85.04
2019-03-27T02:26:21.170Z,84.83
2019-03-27T02:27:21.164Z,84.94
2019-03-27T02:28:21.136Z,84.83
2019-03-27T02:29:21.148Z,85.04
2019-03-27T02:30:21.108Z,84.63
2019-03-27T02:31:21.108Z,85.04
2019-03-27T02:32:21.193Z,85.04
2019-03-27T02:33:21.090Z,84.83
2019-03-27T02:34:21.099Z,84.83
2019-03-27T02:35:21.058Z,84.94
2019-03-27T02:36:21.069Z,84.00
2019-03-27T02:37:21.034Z,83.80
2019-03-27T02:38:21.214Z,83.86
2019-03-27T02:39:21.073Z,84.28
2019-03-27T02:40:21.007Z,84.17
2019-03-27T02:41:21.000Z,83.86
2019-03-27T02:42:20.973Z,84.07
2019-03-27T02:43:20.999Z,83.97
2019-03-27T02:44:20.994Z,83.97
2019-03-27T02:45:20.944Z,83.97
2019-03-27T02:46:25.238Z,85.00
2019-03-27T02:47:20.920Z,84.90
2019-03-27T02:48:20.928Z,85.11
2019-03-27T02:49:20.919Z,84.80
2019-03-27T02:50:20.890Z,85.00
2019-03-27T02:51:20.883Z,85.11
2019-03-27T02:52:20.875Z,84.90
2019-03-27T02:53:20.865Z,84.59
2019-03-27T02:54:20.887Z,84.55
2019-03-27T02:55:20.872Z,84.55
2019-03-27T02:56:20.826Z,84.86
2019-03-27T02:57:20.818Z,84.75
2019-03-27T02:58:20.803Z,84.96
2019-03-27T02:59:20.833Z,84.55
2019-03-27T03:00:20.800Z,83.58
2019-03-27T03:01:20.782Z,83.68
2019-03-27T03:02:20.771Z,83.93
2019-03-27T03:03:20.770Z,83.93
2019-03-27T03:04:20.768Z,84.03
2019-03-27T03:05:21.730Z,83.72
2019-03-27T03:06:20.733Z,83.10
2019-03-27T03:07:20.700Z,83.26
2019-03-27T03:08:20.702Z,83.58
2019-03-27T03:09:20.724Z,83.26
2019-03-27T03:10:20.678Z,83.26
2019-03-27T03:11:21.183Z,83.47
2019-03-27T03:12:20.681Z,83.16
2019-03-27T03:13:20.648Z,83.26
2019-03-27T03:14:20.629Z,83.26
2019-03-27T03:15:20.661Z,82.95
2019-03-27T03:16:20.615Z,82.95
2019-03-27T03:17:20.600Z,82.65
2019-03-27T03:18:20.589Z,82.86
2019-03-27T03:19:20.591Z,83.31
2019-03-27T03:20:20.587Z,82.79
2019-03-27T03:21:20.554Z,83.51
2019-03-27T03:22:20.555Z,82.79
2019-03-27T03:23:20.565Z,82.79
2019-03-27T03:24:20.567Z,83.51
2019-03-27T03:25:20.550Z,83.31
2019-03-27T03:26:20.541Z,83.41
2019-03-27T03:27:20.491Z,83.20
2019-03-27T03:28:20.491Z,82.68
2019-03-27T03:29:20.480Z,82.89
2019-03-27T03:30:20.487Z,83.55
2019-03-27T03:31:20.455Z,83.34
2019-03-27T03:32:20.449Z,83.45
2019-03-27T03:33:20.430Z,83.14
2019-03-27T03:34:20.421Z,83.97
2019-03-27T03:35:20.438Z,83.76
2019-03-27T03:36:20.402Z,84.90
2019-03-27T03:37:20.392Z,84.90
2019-03-27T03:38:20.367Z,84.69
2019-03-27T03:39:20.358Z,84.73
2019-03-27T03:40:20.395Z,84.42
2019-03-27T03:41:20.338Z,84.94
2019-03-27T03:42:20.358Z,85.25
2019-03-27T03:43:20.321Z,84.83
2019-03-27T03:44:20.304Z,85.04
2019-03-27T03:45:20.317Z,85.14
2019-03-27T03:46:20.287Z,85.14
2019-03-27T03:47:20.280Z,84.73
2019-03-27T03:48:20.267Z,84.52
2019-03-27T03:49:20.265Z,85.35
2019-03-27T03:50:20.261Z,85.46
2019-03-27T03:51:20.236Z,85.46
2019-03-27T03:52:20.220Z,85.04
2019-03-27T03:53:20.211Z,85.25
2019-03-27T03:54:20.215Z,85.39
2019-03-27T03:55:20.211Z,85.25
2019-03-27T03:56:20.176Z,85.39
2019-03-27T03:57:20.164Z,85.19
2019-03-27T03:58:20.184Z,85.19
2019-03-27T03:59:20.148Z,85.19
2019-03-27T04:00:20.161Z,85.74
2019-03-27T04:01:20.124Z,85.74
2019-03-27T04:02:20.113Z,85.43
2019-03-27T04:03:20.119Z,86.26
2019-03-27T04:04:20.081Z,86.82
2019-03-27T04:05:20.117Z,86.61
2019-03-27T04:06:20.060Z,87.13
2019-03-27T04:07:20.064Z,87.76
2019-03-27T04:08:20.036Z,87.69
2019-03-27T04:09:20.037Z,87.79
2019-03-27T04:10:20.060Z,88.10
2019-03-27T04:11:20.087Z,88.42
2019-03-27T04:12:19.999Z,88.67
2019-03-27T04:13:19.990Z,89.04
2019-03-27T04:14:19.994Z,89.08
2019-03-27T04:15:20.005Z,88.84
2019-03-27T04:16:19.970Z,88.98
2019-03-27T04:17:19.957Z,89.56
2019-03-27T04:18:19.942Z,89.46
2019-03-27T04:19:19.924Z,89.04
2019-03-27T04:20:19.927Z,89.56
2019-03-27T04:21:19.911Z,89.15
2019-03-27T04:22:19.928Z,89.46
2019-03-27T04:23:19.899Z,89.15
2019-03-27T04:24:19.861Z,89.25
2019-03-27T04:25:19.878Z,89.56
2019-03-27T04:26:19.857Z,89.46
2019-03-27T04:27:19.841Z,88.84
2019-03-27T04:28:19.855Z,88.73
2019-03-27T04:29:19.837Z,89.50
2019-03-27T04:30:19.853Z,89.25
2019-03-27T04:31:19.801Z,88.73
2019-03-27T04:32:19.794Z,89.36
2019-03-27T04:33:19.772Z,89.81
2019-03-27T04:34:19.756Z,90.19
2019-03-27T04:35:19.764Z,90.08
2019-03-27T04:36:19.737Z,89.77
2019-03-27T04:37:19.718Z,89.87
2019-03-27T04:38:19.722Z,89.98
2019-03-27T04:39:19.714Z,89.87
2019-03-27T04:40:19.712Z,90.08
2019-03-27T04:41:19.683Z,90.19
2019-03-27T04:42:19.668Z,89.98
2019-03-27T04:43:19.658Z,90.35
2019-03-27T04:44:19.657Z,90.08
2019-03-27T04:45:19.651Z,89.87
2019-03-27T04:46:19.620Z,89.73
2019-03-27T04:47:31.541Z,90.14
2019-03-27T04:48:20.596Z,90.35
2019-03-27T04:49:19.591Z,90.97
2019-03-27T04:50:19.614Z,90.45
2019-03-27T04:51:19.574Z,90.66
2019-03-27T04:52:19.572Z,89.79
2019-03-27T04:53:19.539Z,90.00
2019-03-27T04:54:19.526Z,89.58
2019-03-27T04:55:19.542Z,90.25
2019-03-27T04:56:19.515Z,90.04
2019-03-27T04:57:19.507Z,89.48
2019-03-27T04:58:19.484Z,89.79
2019-03-27T04:59:19.489Z,89.48
2019-03-27T05:00:19.502Z,89.73
2019-03-27T05:01:19.445Z,89.89
2019-03-27T05:02:19.451Z,90.31
2019-03-27T05:03:19.437Z,90.41
2019-03-27T05:04:19.426Z,90.00
2019-03-27T05:05:19.435Z,89.79
2019-03-27T05:06:19.401Z,89.89
2019-03-27T05:07:19.390Z,90.06
2019-03-27T05:08:19.402Z,89.79
2019-03-27T05:09:19.373Z,89.75
2019-03-27T05:10:19.386Z,89.58
2019-03-27T05:11:19.342Z,88.85
2019-03-27T05:12:19.334Z,88.92
2019-03-27T05:13:19.336Z,89.34
2019-03-27T05:14:19.312Z,89.86
2019-03-27T05:15:19.370Z,89.75
2019-03-27T05:16:19.309Z,89.44
2019-03-27T05:17:19.288Z,89.65
2019-03-27T05:18:19.271Z,88.82
2019-03-27T05:19:19.265Z,88.67
2019-03-27T05:20:19.261Z,89.40
2019-03-27T05:21:19.250Z,88.88
2019-03-27T05:22:19.223Z,89.71
2019-03-27T05:23:19.229Z,89.50
2019-03-27T05:24:19.198Z,89.50
2019-03-27T05:25:19.187Z,88.67
2019-03-27T05:26:19.212Z,89.25
2019-03-27T05:27:19.187Z,88.67
2019-03-27T05:28:19.164Z,88.53
2019-03-27T05:29:19.142Z,88.05
2019-03-27T05:30:19.132Z,87.80
2019-03-27T05:31:19.162Z,87.70
2019-03-27T05:32:19.116Z,87.59
2019-03-27T05:33:19.116Z,88.11
2019-03-27T05:34:19.100Z,87.80
2019-03-27T05:35:19.078Z,87.18
2019-03-27T05:36:19.101Z,87.49
2019-03-27T05:37:19.066Z,87.59
2019-03-27T05:38:19.049Z,87.80
2019-03-27T05:39:19.053Z,87.28
2019-03-27T05:40:19.023Z,87.55
2019-03-27T05:41:19.051Z,87.66
2019-03-27T05:42:19.014Z,87.66
2019-03-27T05:43:18.989Z,87.24
2019-03-27T05:44:18.976Z,87.35
2019-03-27T05:45:18.966Z,87.20
2019-03-27T05:46:18.999Z,86.83
2019-03-27T05:47:18.992Z,86.93
2019-03-27T05:48:18.949Z,86.17
2019-03-27T05:49:18.923Z,86.62
2019-03-27T05:50:18.949Z,86.58
2019-03-27T05:51:18.958Z,86.27
2019-03-27T05:52:18.897Z,86.47
2019-03-27T05:53:18.882Z,86.58
2019-03-27T05:54:18.873Z,85.75
2019-03-27T05:55:18.868Z,85.82
2019-03-27T05:56:18.898Z,85.24
2019-03-27T05:57:18.846Z,85.34
2019-03-27T05:58:18.831Z,85.13
2019-03-27T05:59:18.830Z,85.24
2019-03-27T06:00:18.801Z,85.71
2019-03-27T06:01:18.823Z,85.40
2019-03-27T06:02:18.792Z,85.30
2019-03-27T06:03:18.793Z,85.40
2019-03-27T06:04:18.771Z,85.19
2019-03-27T06:05:18.759Z,85.50
2019-03-27T06:06:18.787Z,85.40
2019-03-27T06:07:18.731Z,85.78
2019-03-27T06:08:18.722Z,85.16
2019-03-27T06:09:18.711Z,84.95
2019-03-27T06:10:18.709Z,84.64
2019-03-27T06:11:18.711Z,85.05
2019-03-27T06:12:18.679Z,85.16
2019-03-27T06:13:18.672Z,84.84
2019-03-27T06:14:18.673Z,84.74
2019-03-27T06:15:18.660Z,84.81
2019-03-27T06:16:18.653Z,84.70
2019-03-27T06:17:18.628Z,84.50
2019-03-27T06:18:18.629Z,84.50
2019-03-27T06:19:18.615Z,84.08
2019-03-27T06:20:18.659Z,84.60
2019-03-27T06:21:18.614Z,84.70
2019-03-27T06:22:18.594Z,84.70
2019-03-27T06:23:18.566Z,84.60
2019-03-27T06:24:18.561Z,84.56
2019-03-27T06:25:18.546Z,84.45
2019-03-27T06:26:18.586Z,83.84
2019-03-27T06:27:18.521Z,83.73
2019-03-27T06:28:18.509Z,83.84
2019-03-27T06:29:18.490Z,84.56
2019-03-27T06:30:18.509Z,84.15
2019-03-27T06:31:18.511Z,84.77
2019-03-27T06:32:18.466Z,84.66
2019-03-27T06:33:18.450Z,83.63
2019-03-27T06:34:18.444Z,84.83
2019-03-27T06:35:20.196Z,84.63
2019-03-27T06:36:18.456Z,84.63
2019-03-27T06:37:18.449Z,83.70
2019-03-27T06:38:18.408Z,83.07
2019-03-27T06:39:18.401Z,82.73
2019-03-27T06:40:18.392Z,82.42
2019-03-27T06:41:18.401Z,82.83
2019-03-27T06:42:18.361Z,82.83
2019-03-27T06:43:18.410Z,82.42
2019-03-27T06:44:18.331Z,82.69
2019-03-27T06:45:18.319Z,82.59
2019-03-27T06:46:18.421Z,83.20
2019-03-27T06:47:18.365Z,82.14
2019-03-27T06:48:26.062Z,82.14
2019-03-27T06:49:19.277Z,81.82
2019-03-27T06:50:18.269Z,81.51
2019-03-27T06:51:18.251Z,81.41
2019-03-27T06:52:18.262Z,81.93
2019-03-27T06:53:18.249Z,81.00
2019-03-27T06:54:18.220Z,81.58
2019-03-27T06:55:18.247Z,81.68
2019-03-27T06:56:18.204Z,81.27
2019-03-27T06:57:18.216Z,81.41
2019-03-27T06:58:18.285Z,81.07
2019-03-27T06:59:18.168Z,81.37
2019-03-27T07:00:18.194Z,80.82
2019-03-27T07:01:18.160Z,81.03
2019-03-27T07:02:18.161Z,81.75
2019-03-27T07:03:18.120Z,80.72
2019-03-27T07:04:18.115Z,80.16
2019-03-27T07:05:18.112Z,79.55
2019-03-27T07:06:18.107Z,79.41
2019-03-27T07:07:18.112Z,79.82
2019-03-27T07:08:18.071Z,79.27
2019-03-27T07:09:18.063Z,79.27
2019-03-27T07:10:18.041Z,77.69
2019-03-27T07:11:18.053Z,77.65
2019-03-27T07:12:21.305Z,77.13
2019-03-27T07:13:18.035Z,74.67
2019-03-27T07:14:18.037Z,72.89
2019-03-27T07:15:17.994Z,72.68
2019-03-27T07:16:17.982Z,72.38
2019-03-27T07:17:18.001Z,72.38
2019-03-27T07:18:17.977Z,72.99
2019-03-27T07:19:17.968Z,71.76
2019-03-27T07:20:17.937Z,72.78
2019-03-27T07:21:17.931Z,73.13
2019-03-27T07:22:17.948Z,73.19
2019-03-27T07:23:17.913Z,72.38
2019-03-27T07:24:17.912Z,71.76
2019-03-27T07:25:17.904Z,72.68
2019-03-27T07:26:17.871Z,72.24
2019-03-27T07:27:17.894Z,73.13
2019-03-27T07:28:17.875Z,71.18
2019-03-27T07:29:19.166Z,71.39
2019-03-27T07:30:17.854Z,71.04
2019-03-27T07:31:17.899Z,70.53
2019-03-27T07:32:17.845Z,70.23
2019-03-27T07:33:17.830Z,66.93
2019-03-27T07:34:17.784Z,67.03
2019-03-27T07:35:17.777Z,65.56
2019-03-27T07:36:17.781Z,67.02
2019-03-27T07:37:17.787Z,67.23
2019-03-27T07:38:17.737Z,66.41
2019-03-27T07:39:17.743Z,66.69
2019-03-27T07:40:17.780Z,65.77
2019-03-27T07:41:17.727Z,67.10
2019-03-27T07:42:18.619Z,64.76
2019-03-27T07:43:17.723Z,60.24
2019-03-27T07:44:17.739Z,59.60
2019-03-27T07:45:17.681Z,60.03
2019-03-27T07:46:17.679Z,60.93
2019-03-27T07:47:17.657Z,62.36
2019-03-27T07:48:17.674Z,62.36
2019-03-27T07:49:17.646Z,62.16
2019-03-27T07:50:17.679Z,60.76
2019-03-27T07:51:17.620Z,60.53
2019-03-27T07:52:17.590Z,60.30
2019-03-27T07:53:17.606Z,59.25
2019-03-27T07:54:17.580Z,61.25
2019-03-27T07:55:19.490Z,58.89
2019-03-27T07:56:17.556Z,57.06
2019-03-27T07:57:17.531Z,58.33
2019-03-27T07:58:17.555Z,57.46
2019-03-27T07:59:17.525Z,54.59
2019-03-27T08:00:17.536Z,56.18
2019-03-27T08:01:17.497Z,54.74
2019-03-27T08:02:17.497Z,54.46
2019-03-27T08:03:17.531Z,54.16
2019-03-27T08:04:17.493Z,51.81
2019-03-27T08:05:17.454Z,51.70
2019-03-27T08:06:17.460Z,53.88
2019-03-27T08:07:26.857Z,50.74
2019-03-27T08:08:18.505Z,49.50
2019-03-27T08:09:17.403Z,52.69
2019-03-27T08:10:17.401Z,56.01
2019-03-27T08:11:17.419Z,55.96
2019-03-27T08:12:17.370Z,55.66
2019-03-27T08:13:17.405Z,56.09
2019-03-27T08:14:17.359Z,56.12
2019-03-27T08:15:17.335Z,58.41
2019-03-27T08:16:17.343Z,60.00
2019-03-27T08:17:17.334Z,61.28
2019-03-27T08:18:17.332Z,61.90
2019-03-27T08:19:17.303Z,62.13
2019-03-27T08:20:17.306Z,63.18
2019-03-27T08:21:17.281Z,63.22
2019-03-27T08:22:17.263Z,61.73
2019-03-27T08:23:17.296Z,60.32
2019-03-27T08:24:17.314Z,59.30
2019-03-27T08:25:17.257Z,60.30
2019-03-27T08:26:17.230Z,58.44
2019-03-27T08:27:17.263Z,55.86
2019-03-27T08:28:17.238Z,53.14
2019-03-27T08:29:17.180Z,51.65
2019-03-27T08:30:17.184Z,50.26
2019-03-27T08:31:17.170Z,49.24
2019-03-27T08:32:17.164Z,53.65
2019-03-27T08:33:17.182Z,54.28
2019-03-27T08:34:17.137Z,58.82
2019-03-27T08:35:17.140Z,59.05
2019-03-27T08:36:17.126Z,57.79
2019-03-27T08:37:17.106Z,56.16
2019-03-27T08:38:17.120Z,54.03
2019-03-27T08:39:17.091Z,50.74
2019-03-27T08:40:17.077Z,48.06
2019-03-27T08:41:17.059Z,49.40
2019-03-27T08:42:17.062Z,48.16
2019-03-27T08:43:21.529Z,50.86
2019-03-27T08:44:18.098Z,52.28
2019-03-27T08:45:17.014Z,53.19
2019-03-27T08:46:17.041Z,53.85
2019-03-27T08:47:17.053Z,56.88
2019-03-27T08:48:17.020Z,57.93
2019-03-27T08:49:22.147Z,59.46
2019-03-27T08:50:17.968Z,59.28
2019-03-27T08:51:16.984Z,59.82
2019-03-27T08:52:16.970Z,61.71
2019-03-27T08:53:16.959Z,59.97
2019-03-27T08:54:16.964Z,57.06
2019-03-27T08:55:16.910Z,55.76
2019-03-27T08:56:16.899Z,58.34
2019-03-27T08:57:16.910Z,59.05
2019-03-27T08:58:16.907Z,59.39
2019-03-27T08:59:16.882Z,59.21
2019-03-27T09:00:16.868Z,60.33
2019-03-27T09:01:16.857Z,59.52
2019-03-27T09:02:16.830Z,59.11
2019-03-27T09:03:16.836Z,60.41
2019-03-27T09:04:16.823Z,60.71
2019-03-27T09:05:16.809Z,58.26
2019-03-27T09:06:16.838Z,57.80
2019-03-27T09:07:16.803Z,58.20
2019-03-27T09:08:16.765Z,53.32
2019-03-27T09:09:16.769Z,50.86
2019-03-27T09:10:16.769Z,49.02
2019-03-27T09:11:16.778Z,48.79
2019-03-27T09:12:16.743Z,42.19
2019-03-27T09:13:16.718Z,46.14
2019-03-27T09:14:16.719Z,40.04
2019-03-27T09:15:16.688Z,42.24
2019-03-27T09:16:16.705Z,42.64
2019-03-27T09:17:16.676Z,46.22
2019-03-27T09:18:17.087Z,43.52
2019-03-27T09:19:16.662Z,40.63
2019-03-27T09:20:16.652Z,41.39
2019-03-27T09:21:16.654Z,41.69
2019-03-27T09:22:16.625Z,40.19
2019-03-27T09:23:16.596Z,42.60
2019-03-27T09:24:16.594Z,41.77
2019-03-27T09:25:16.636Z,43.16
2019-03-27T09:26:16.607Z,45.27
2019-03-27T09:27:16.586Z,48.30
2019-03-27T09:28:28.712Z,49.62
2019-03-27T09:29:28.765Z,48.94
2019-03-27T09:30:28.799Z,47.07
2019-03-27T09:31:28.896Z,48.94
2019-03-27T09:32:28.899Z,49.01
2019-03-27T09:33:28.952Z,52.13
2019-03-27T09:34:29.006Z,50.87
2019-03-27T09:35:53.459Z,47.38
2019-03-27T09:36:53.518Z,47.92
2019-03-27T09:43:25.291Z,47.52
2019-03-27T09:44:25.227Z,48.13
2019-03-27T09:45:25.188Z,48.19
2019-03-27T09:46:25.170Z,51.06
2019-03-27T09:47:25.127Z,51.92
2019-03-27T09:48:25.199Z,51.54
2019-03-27T09:49:25.037Z,53.17
2019-03-27T09:50:24.983Z,54.94
2019-03-27T09:51:24.969Z,53.44
2019-03-27T09:52:24.918Z,54.28
2019-03-27T09:53:24.896Z,55.91
2019-03-27T09:54:24.844Z,55.87
2019-03-27T09:55:24.813Z,57.24
2019-03-27T09:56:24.820Z,59.18
2019-03-27T09:57:24.788Z,59.59
2019-03-27T09:58:24.812Z,57.48
2019-03-27T09:59:24.729Z,58.39
2019-03-27T10:00:24.702Z,58.32
2019-03-27T10:01:24.774Z,58.62
2019-03-27T10:02:24.693Z,59.72
2019-03-27T10:03:24.686Z,58.70
2019-03-27T10:04:24.658Z,58.22
2019-03-27T10:05:24.687Z,58.70
2019-03-27T10:06:24.731Z,58.64
2019-03-27T10:07:24.662Z,56.73
2019-03-27T10:08:24.642Z,53.47
2019-03-27T10:09:24.619Z,46.70
2019-03-27T10:10:24.698Z,47.52
2019-03-27T10:11:24.762Z,45.59
2019-03-27T10:12:24.789Z,42.61
2019-03-27T10:13:24.844Z,45.59
2019-03-27T10:14:24.887Z,46.29
2019-03-27T10:15:24.941Z,49.89
2019-03-27T10:16:25.019Z,50.32
2019-03-27T10:17:25.046Z,50.85
2019-03-27T10:18:25.103Z,52.12
2019-03-27T10:19:25.152Z,56.12
